메인 페이지
METAR-TAF:

METAR-TAF

공항 :

물탄 국제공항

물탄, 파키스탄

위도: 30-12-12N, 경도: 71-25-09E, 고도: 122m

현재 날씨관측

예보는 26분 전, 00:00시(UTC)에 발표되었습니다.
무풍
온도 28°C
습도 66%
기압 1008 hPa
시정: 3500m
연기

METAR: OPMT 220000Z 00000KT 3500 FU NSC 28/21 Q1008 TEMPO 3000

시각: 05:26 (00:26 UTC)

예보

예보는 2 시간 4분 전, 22:22시(UTC)에 발표되었습니다.
예보 대상 시간: 22일 00시부터 22일 18시까지 (UTC)
남서10kt
시정: 4000m
고도 12000ft 상공 구름 조금
연기
확률 30% :
일시적
22일 01시부터 22일 04시까지 (UTC)
kt
시정: 2000m
연기

TAF: OPMT 212222Z 2200/2218 23010KT 4000 FU FEW120 TN26/2201Z TX37/2210Z PROB30 TEMPO 2201/2204 00000KT 2000 FU NSC

4,000개 이상의 공항 관측 자료 및 예보 (METAR 및 TAF 보고).

지도상에서 검색 가능한 기상관측소가 노란 점과 빨간 점으로 표시되어 있습니다.

기상관측소 명을 보려면 표시 위로 마우스를 이동하세요.

날씨 관측과 예보를 보려면 클릭하세요.

지도 변경 : 확대하려면 엑스 표시가 있는 녹색 버튼, 축소하려면 빼기 표시가 있는 녹색 버튼, 다음 페이지의 지도를 보려면 녹색 화살표를 클릭하세요.


METAR-TAF: